sensor_id;sensor_type;location;lat;lon;timestamp;P1;durP1;ratioP1;P2;durP2;ratioP2
59907;SDS011;61804;54.926;73.496;2023-07-28T00:00:21;28.13;;;23.25;;
59907;SDS011;61804;54.926;73.496;2023-07-28T00:02:49;44.90;;;24.63;;
59907;SDS011;61804;54.926;73.496;2023-07-28T00:05:16;28.38;;;22.88;;
59907;SDS011;61804;54.926;73.496;2023-07-28T00:07:44;29.38;;;26.58;;
59907;SDS011;61804;54.926;73.496;2023-07-28T00:10:11;29.80;;;26.63;;
59907;SDS011;61804;54.926;73.496;2023-07-28T00:12:39;32.55;;;26.83;;
59907;SDS011;61804;54.926;73.496;2023-07-28T00:15:06;35.13;;;26.20;;
59907;SDS011;61804;54.926;73.496;2023-07-28T00:17:33;49.22;;;27.45;;
59907;SDS011;61804;54.926;73.496;2023-07-28T00:20:01;37.50;;;27.95;;
59907;SDS011;61804;54.926;73.496;2023-07-28T00:22:28;61.13;;;29.20;;
59907;SDS011;61804;54.926;73.496;2023-07-28T00:24:56;28.15;;;25.02;;
59907;SDS011;61804;54.926;73.496;2023-07-28T00:27:23;40.13;;;27.38;;
59907;SDS011;61804;54.926;73.496;2023-07-28T00:29:51;36.33;;;27.98;;
59907;SDS011;61804;54.926;73.496;2023-07-28T00:32:18;29.15;;;26.15;;
59907;SDS011;61804;54.926;73.496;2023-07-28T00:34:46;33.10;;;26.35;;
59907;SDS011;61804;54.926;73.496;2023-07-28T00:37:14;32.55;;;28.58;;
59907;SDS011;61804;54.926;73.496;2023-07-28T00:39:41;30.45;;;27.45;;
59907;SDS011;61804;54.926;73.496;2023-07-28T00:42:09;40.53;;;26.65;;
59907;SDS011;61804;54.926;73.496;2023-07-28T00:44:36;29.38;;;26.15;;
59907;SDS011;61804;54.926;73.496;2023-07-28T00:47:06;41.85;;;27.33;;
59907;SDS011;61804;54.926;73.496;2023-07-28T00:49:46;33.25;;;25.95;;
59907;SDS011;61804;54.926;73.496;2023-07-28T00:52:13;34.38;;;25.35;;
59907;SDS011;61804;54.926;73.496;2023-07-28T00:54:40;37.05;;;24.67;;
59907;SDS011;61804;54.926;73.496;2023-07-28T00:57:09;52.70;;;29.25;;
59907;SDS011;61804;54.926;73.496;2023-07-28T00:59:37;39.67;;;25.67;;
59907;SDS011;61804;54.926;73.496;2023-07-28T01:02:04;43.33;;;30.58;;
59907;SDS011;61804;54.926;73.496;2023-07-28T01:04:32;79.40;;;50.92;;
59907;SDS011;61804;54.926;73.496;2023-07-28T01:07:02;76.75;;;52.03;;
59907;SDS011;61804;54.926;73.496;2023-07-28T01:09:34;46.35;;;29.58;;
59907;SDS011;61804;54.926;73.496;2023-07-28T01:12:06;32.53;;;27.58;;
59907;SDS011;61804;54.926;73.496;2023-07-28T01:14:34;26.77;;;23.80;;
59907;SDS011;61804;54.926;73.496;2023-07-28T01:17:01;49.72;;;26.15;;
59907;SDS011;61804;54.926;73.496;2023-07-28T01:19:28;45.35;;;26.20;;
59907;SDS011;61804;54.926;73.496;2023-07-28T01:24:55;36.05;;;25.08;;
59907;SDS011;61804;54.926;73.496;2023-07-28T01:29:55;33.03;;;22.88;;
59907;SDS011;61804;54.926;73.496;2023-07-28T01:32:22;26.15;;;21.58;;
59907;SDS011;61804;54.926;73.496;2023-07-28T01:34:49;31.33;;;22.17;;
59907;SDS011;61804;54.926;73.496;2023-07-28T01:37:17;25.25;;;20.30;;
59907;SDS011;61804;54.926;73.496;2023-07-28T01:39:45;17.48;;;15.50;;
59907;SDS011;61804;54.926;73.496;2023-07-28T01:42:12;17.38;;;15.73;;
59907;SDS011;61804;54.926;73.496;2023-07-28T01:44:40;18.38;;;13.45;;
59907;SDS011;61804;54.926;73.496;2023-07-28T01:47:08;17.63;;;14.50;;
59907;SDS011;61804;54.926;73.496;2023-07-28T01:49:35;20.95;;;14.35;;
59907;SDS011;61804;54.926;73.496;2023-07-28T01:52:02;57.60;;;15.02;;
59907;SDS011;61804;54.926;73.496;2023-07-28T01:54:30;13.18;;;10.57;;
59907;SDS011;61804;54.926;73.496;2023-07-28T01:56:58;26.60;;;12.43;;
59907;SDS011;61804;54.926;73.496;2023-07-28T01:59:25;30.23;;;11.88;;
59907;SDS011;61804;54.926;73.496;2023-07-28T02:01:53;77.20;;;21.30;;
59907;SDS011;61804;54.926;73.496;2023-07-28T02:04:21;13.85;;;10.52;;
59907;SDS011;61804;54.926;73.496;2023-07-28T02:06:48;12.43;;;9.60;;
59907;SDS011;61804;54.926;73.496;2023-07-28T02:09:16;15.00;;;9.50;;
59907;SDS011;61804;54.926;73.496;2023-07-28T02:11:44;19.25;;;9.15;;
59907;SDS011;61804;54.926;73.496;2023-07-28T02:14:11;21.67;;;9.88;;
59907;SDS011;61804;54.926;73.496;2023-07-28T02:16:38;8.75;;;7.95;;
59907;SDS011;61804;54.926;73.496;2023-07-28T02:19:05;17.58;;;9.40;;
59907;SDS011;61804;54.926;73.496;2023-07-28T02:21:34;22.83;;;10.55;;
59907;SDS011;61804;54.926;73.496;2023-07-28T02:24:01;8.63;;;7.85;;
59907;SDS011;61804;54.926;73.496;2023-07-28T02:26:29;7.55;;;6.75;;
59907;SDS011;61804;54.926;73.496;2023-07-28T02:28:57;7.45;;;6.15;;
59907;SDS011;61804;54.926;73.496;2023-07-28T02:31:24;11.27;;;7.93;;
59907;SDS011;61804;54.926;73.496;2023-07-28T02:33:52;10.25;;;6.55;;
59907;SDS011;61804;54.926;73.496;2023-07-28T02:36:19;7.38;;;6.63;;
59907;SDS011;61804;54.926;73.496;2023-07-28T02:38:47;6.03;;;5.50;;
59907;SDS011;61804;54.926;73.496;2023-07-28T02:41:15;10.75;;;6.13;;
59907;SDS011;61804;54.926;73.496;2023-07-28T02:43:42;8.40;;;6.57;;
59907;SDS011;61804;54.926;73.496;2023-07-28T02:46:10;10.65;;;5.05;;
59907;SDS011;61804;54.926;73.496;2023-07-28T02:48:38;6.88;;;5.32;;
59907;SDS011;61804;54.926;73.496;2023-07-28T02:51:05;7.88;;;5.53;;
59907;SDS011;61804;54.926;73.496;2023-07-28T02:53:32;4.50;;;4.05;;
59907;SDS011;61804;54.926;73.496;2023-07-28T02:56:00;5.10;;;4.60;;
59907;SDS011;61804;54.926;73.496;2023-07-28T02:58:27;5.82;;;5.20;;
59907;SDS011;61804;54.926;73.496;2023-07-28T03:00:55;5.35;;;4.70;;
59907;SDS011;61804;54.926;73.496;2023-07-28T03:03:30;4.65;;;3.33;;
59907;SDS011;61804;54.926;73.496;2023-07-28T03:05:58;4.75;;;4.30;;
59907;SDS011;61804;54.926;73.496;2023-07-28T03:08:26;3.53;;;3.15;;
59907;SDS011;61804;54.926;73.496;2023-07-28T03:11:01;4.10;;;3.72;;
59907;SDS011;61804;54.926;73.496;2023-07-28T03:13:33;13.18;;;5.22;;
59907;SDS011;61804;54.926;73.496;2023-07-28T03:16:02;3.80;;;3.35;;
59907;SDS011;61804;54.926;73.496;2023-07-28T03:18:30;4.43;;;3.33;;
59907;SDS011;61804;54.926;73.496;2023-07-28T03:20:58;10.38;;;3.17;;
59907;SDS011;61804;54.926;73.496;2023-07-28T03:23:25;5.53;;;5.13;;
59907;SDS011;61804;54.926;73.496;2023-07-28T03:25:53;21.58;;;10.07;;
59907;SDS011;61804;54.926;73.496;2023-07-28T03:28:20;4.63;;;3.60;;
59907;SDS011;61804;54.926;73.496;2023-07-28T03:30:48;3.75;;;3.45;;
59907;SDS011;61804;54.926;73.496;2023-07-28T03:33:15;10.27;;;4.85;;
59907;SDS011;61804;54.926;73.496;2023-07-28T03:35:42;4.50;;;4.10;;
59907;SDS011;61804;54.926;73.496;2023-07-28T03:38:11;5.03;;;4.25;;
59907;SDS011;61804;54.926;73.496;2023-07-28T03:40:40;5.18;;;4.70;;
59907;SDS011;61804;54.926;73.496;2023-07-28T03:43:08;8.60;;;5.50;;
59907;SDS011;61804;54.926;73.496;2023-07-28T03:45:36;5.97;;;4.35;;
59907;SDS011;61804;54.926;73.496;2023-07-28T03:48:04;7.38;;;5.13;;
59907;SDS011;61804;54.926;73.496;2023-07-28T03:50:32;6.70;;;5.47;;
59907;SDS011;61804;54.926;73.496;2023-07-28T03:53:00;8.05;;;5.43;;
59907;SDS011;61804;54.926;73.496;2023-07-28T03:55:27;11.05;;;7.18;;
59907;SDS011;61804;54.926;73.496;2023-07-28T03:57:55;29.15;;;8.27;;
59907;SDS011;61804;54.926;73.496;2023-07-28T04:00:22;25.65;;;8.30;;
59907;SDS011;61804;54.926;73.496;2023-07-28T04:02:50;10.60;;;6.60;;
59907;SDS011;61804;54.926;73.496;2023-07-28T04:05:18;13.82;;;6.70;;
59907;SDS011;61804;54.926;73.496;2023-07-28T04:07:46;10.77;;;5.72;;
59907;SDS011;61804;54.926;73.496;2023-07-28T04:10:15;18.77;;;6.45;;
59907;SDS011;61804;54.926;73.496;2023-07-28T04:12:43;8.70;;;6.90;;
59907;SDS011;61804;54.926;73.496;2023-07-28T04:15:10;14.77;;;6.18;;
59907;SDS011;61804;54.926;73.496;2023-07-28T04:17:37;15.52;;;7.93;;
59907;SDS011;61804;54.926;73.496;2023-07-28T04:20:05;8.68;;;7.75;;
59907;SDS011;61804;54.926;73.496;2023-07-28T04:22:33;33.97;;;13.07;;
59907;SDS011;61804;54.926;73.496;2023-07-28T04:25:00;12.25;;;8.40;;
59907;SDS011;61804;54.926;73.496;2023-07-28T04:27:29;9.23;;;7.75;;
59907;SDS011;61804;54.926;73.496;2023-07-28T04:30:03;16.52;;;10.43;;
59907;SDS011;61804;54.926;73.496;2023-07-28T04:32:31;11.52;;;8.18;;
59907;SDS011;61804;54.926;73.496;2023-07-28T04:35:05;11.75;;;7.57;;
59907;SDS011;61804;54.926;73.496;2023-07-28T04:37:42;10.18;;;8.23;;
59907;SDS011;61804;54.926;73.496;2023-07-28T04:40:12;17.45;;;8.10;;
59907;SDS011;61804;54.926;73.496;2023-07-28T04:42:40;14.07;;;7.90;;
59907;SDS011;61804;54.926;73.496;2023-07-28T04:45:08;17.05;;;8.32;;
59907;SDS011;61804;54.926;73.496;2023-07-28T04:47:36;13.70;;;8.60;;
59907;SDS011;61804;54.926;73.496;2023-07-28T04:50:08;24.45;;;12.18;;
59907;SDS011;61804;54.926;73.496;2023-07-28T04:52:45;25.48;;;11.57;;
59907;SDS011;61804;54.926;73.496;2023-07-28T04:55:24;15.35;;;10.20;;
59907;SDS011;61804;54.926;73.496;2023-07-28T04:57:54;24.77;;;18.23;;
59907;SDS011;61804;54.926;73.496;2023-07-28T05:00:23;17.67;;;9.32;;
59907;SDS011;61804;54.926;73.496;2023-07-28T05:02:50;15.23;;;10.32;;
59907;SDS011;61804;54.926;73.496;2023-07-28T05:05:20;14.05;;;9.98;;
59907;SDS011;61804;54.926;73.496;2023-07-28T05:07:48;13.30;;;8.77;;
59907;SDS011;61804;54.926;73.496;2023-07-28T05:10:16;10.98;;;8.52;;
59907;SDS011;61804;54.926;73.496;2023-07-28T05:12:44;14.63;;;9.18;;
59907;SDS011;61804;54.926;73.496;2023-07-28T05:15:13;10.93;;;6.00;;
59907;SDS011;61804;54.926;73.496;2023-07-28T05:17:40;9.27;;;8.10;;
59907;SDS011;61804;54.926;73.496;2023-07-28T05:20:39;28.58;;;8.95;;
59907;SDS011;61804;54.926;73.496;2023-07-28T05:23:13;9.27;;;6.77;;
59907;SDS011;61804;54.926;73.496;2023-07-28T05:25:41;13.05;;;7.63;;
59907;SDS011;61804;54.926;73.496;2023-07-28T05:28:09;46.83;;;41.55;;
59907;SDS011;61804;54.926;73.496;2023-07-28T05:30:41;13.75;;;7.15;;
59907;SDS011;61804;54.926;73.496;2023-07-28T05:33:09;11.88;;;6.13;;
59907;SDS011;61804;54.926;73.496;2023-07-28T05:35:58;6.93;;;6.28;;
59907;SDS011;61804;54.926;73.496;2023-07-28T05:38:25;9.15;;;7.63;;
59907;SDS011;61804;54.926;73.496;2023-07-28T05:40:57;30.95;;;8.35;;
59907;SDS011;61804;54.926;73.496;2023-07-28T05:43:24;13.02;;;7.85;;
59907;SDS011;61804;54.926;73.496;2023-07-28T05:45:54;12.10;;;6.20;;
59907;SDS011;61804;54.926;73.496;2023-07-28T05:48:22;15.02;;;6.75;;
59907;SDS011;61804;54.926;73.496;2023-07-28T05:50:49;12.80;;;6.75;;
59907;SDS011;61804;54.926;73.496;2023-07-28T05:53:21;23.27;;;8.27;;
59907;SDS011;61804;54.926;73.496;2023-07-28T05:55:57;12.23;;;7.60;;
59907;SDS011;61804;54.926;73.496;2023-07-28T05:58:28;11.90;;;7.25;;
59907;SDS011;61804;54.926;73.496;2023-07-28T06:00:56;11.05;;;7.35;;
59907;SDS011;61804;54.926;73.496;2023-07-28T06:03:44;25.80;;;7.45;;
59907;SDS011;61804;54.926;73.496;2023-07-28T06:06:22;14.15;;;6.88;;
59907;SDS011;61804;54.926;73.496;2023-07-28T06:08:49;42.40;;;12.60;;
59907;SDS011;61804;54.926;73.496;2023-07-28T06:11:16;33.45;;;7.88;;
59907;SDS011;61804;54.926;73.496;2023-07-28T06:13:44;13.15;;;6.78;;
59907;SDS011;61804;54.926;73.496;2023-07-28T06:16:14;37.25;;;10.73;;
59907;SDS011;61804;54.926;73.496;2023-07-28T06:18:42;16.50;;;9.38;;
59907;SDS011;61804;54.926;73.496;2023-07-28T06:21:19;13.57;;;5.88;;
59907;SDS011;61804;54.926;73.496;2023-07-28T06:23:46;31.02;;;10.25;;
59907;SDS011;61804;54.926;73.496;2023-07-28T06:26:14;23.90;;;15.52;;
59907;SDS011;61804;54.926;73.496;2023-07-28T06:28:44;16.50;;;7.80;;
